sensor_id;sensor_type;location;lat;lon;timestamp;temperature;humidity
52058;DHT22;38063;53.210;6.504;2023-05-07T00:00:38;12.10;99.90
52058;DHT22;38063;53.210;6.504;2023-05-07T00:03:03;12.10;99.90
52058;DHT22;38063;53.210;6.504;2023-05-07T00:05:29;12.00;99.90
52058;DHT22;38063;53.210;6.504;2023-05-07T00:07:55;12.10;99.90
52058;DHT22;38063;53.210;6.504;2023-05-07T00:10:20;12.00;99.90
52058;DHT22;38063;53.210;6.504;2023-05-07T00:12:46;12.00;99.90
52058;DHT22;38063;53.210;6.504;2023-05-07T00:15:12;12.00;99.90
52058;DHT22;38063;53.210;6.504;2023-05-07T00:17:37;11.90;99.90
52058;DHT22;38063;53.210;6.504;2023-05-07T00:20:04;11.90;99.90
52058;DHT22;38063;53.210;6.504;2023-05-07T00:22:31;11.90;99.90
52058;DHT22;38063;53.210;6.504;2023-05-07T00:24:58;11.80;99.90
52058;DHT22;38063;53.210;6.504;2023-05-07T00:27:24;11.80;99.90
52058;DHT22;38063;53.210;6.504;2023-05-07T00:29:50;11.80;99.90
52058;DHT22;38063;53.210;6.504;2023-05-07T00:32:16;11.80;99.90
52058;DHT22;38063;53.210;6.504;2023-05-07T00:34:42;12.20;99.90
52058;DHT22;38063;53.210;6.504;2023-05-07T00:37:08;11.70;99.90
52058;DHT22;38063;53.210;6.504;2023-05-07T00:39:35;11.70;99.90
52058;DHT22;38063;53.210;6.504;2023-05-07T00:42:00;11.60;99.90
52058;DHT22;38063;53.210;6.504;2023-05-07T00:44:26;11.70;99.90
52058;DHT22;38063;53.210;6.504;2023-05-07T00:46:53;11.70;99.90
52058;DHT22;38063;53.210;6.504;2023-05-07T00:49:19;11.60;99.90
52058;DHT22;38063;53.210;6.504;2023-05-07T00:51:45;11.60;99.90
52058;DHT22;38063;53.210;6.504;2023-05-07T00:54:12;11.60;99.90
52058;DHT22;38063;53.210;6.504;2023-05-07T00:56:38;11.60;99.90
52058;DHT22;38063;53.210;6.504;2023-05-07T00:59:05;11.50;99.90
52058;DHT22;38063;53.210;6.504;2023-05-07T01:01:31;11.50;99.90
52058;DHT22;38063;53.210;6.504;2023-05-07T01:03:57;11.50;99.90
52058;DHT22;38063;53.210;6.504;2023-05-07T01:06:24;11.50;99.90
52058;DHT22;38063;53.210;6.504;2023-05-07T01:08:54;11.50;99.90
52058;DHT22;38063;53.210;6.504;2023-05-07T01:11:22;11.50;99.90
52058;DHT22;38063;53.210;6.504;2023-05-07T01:13:49;11.50;99.90
52058;DHT22;38063;53.210;6.504;2023-05-07T01:16:15;11.50;99.90
52058;DHT22;38063;53.210;6.504;2023-05-07T01:18:41;11.40;99.90
52058;DHT22;38063;53.210;6.504;2023-05-07T01:21:11;11.40;99.90
52058;DHT22;38063;53.210;6.504;2023-05-07T01:23:37;11.40;99.90
52058;DHT22;38063;53.210;6.504;2023-05-07T01:26:03;11.40;99.90
52058;DHT22;38063;53.210;6.504;2023-05-07T01:28:29;11.40;99.90
52058;DHT22;38063;53.210;6.504;2023-05-07T01:31:00;11.30;99.90
52058;DHT22;38063;53.210;6.504;2023-05-07T01:33:29;11.40;99.90
52058;DHT22;38063;53.210;6.504;2023-05-07T01:35:57;11.30;99.90
52058;DHT22;38063;53.210;6.504;2023-05-07T01:38:25;11.30;99.90
52058;DHT22;38063;53.210;6.504;2023-05-07T01:40:52;11.40;99.90
52058;DHT22;38063;53.210;6.504;2023-05-07T01:43:19;11.30;99.90
52058;DHT22;38063;53.210;6.504;2023-05-07T01:45:45;11.30;99.90
52058;DHT22;38063;53.210;6.504;2023-05-07T01:48:12;11.20;99.90
52058;DHT22;38063;53.210;6.504;2023-05-07T01:50:39;11.30;99.90
52058;DHT22;38063;53.210;6.504;2023-05-07T01:53:05;11.20;99.90
52058;DHT22;38063;53.210;6.504;2023-05-07T01:55:31;11.20;99.90
52058;DHT22;38063;53.210;6.504;2023-05-07T01:57:56;11.20;99.90
52058;DHT22;38063;53.210;6.504;2023-05-07T02:00:22;11.20;99.90
52058;DHT22;38063;53.210;6.504;2023-05-07T02:02:48;11.20;99.90
52058;DHT22;38063;53.210;6.504;2023-05-07T02:05:14;11.20;99.90
52058;DHT22;38063;53.210;6.504;2023-05-07T02:07:39;11.40;99.90
52058;DHT22;38063;53.210;6.504;2023-05-07T02:10:05;11.30;99.90
52058;DHT22;38063;53.210;6.504;2023-05-07T02:12:31;11.10;99.90
52058;DHT22;38063;53.210;6.504;2023-05-07T02:14:57;11.10;99.90
52058;DHT22;38063;53.210;6.504;2023-05-07T02:17:22;11.10;99.90
52058;DHT22;38063;53.210;6.504;2023-05-07T02:19:48;11.10;99.90
52058;DHT22;38063;53.210;6.504;2023-05-07T02:22:14;11.00;99.90
52058;DHT22;38063;53.210;6.504;2023-05-07T02:24:39;11.00;99.90
52058;DHT22;38063;53.210;6.504;2023-05-07T02:27:05;11.00;99.90
52058;DHT22;38063;53.210;6.504;2023-05-07T02:29:31;11.00;99.90
52058;DHT22;38063;53.210;6.504;2023-05-07T02:31:56;11.00;99.90
52058;DHT22;38063;53.210;6.504;2023-05-07T02:34:22;11.00;99.90
52058;DHT22;38063;53.210;6.504;2023-05-07T02:36:48;11.00;99.90
52058;DHT22;38063;53.210;6.504;2023-05-07T02:39:14;11.20;99.90
52058;DHT22;38063;53.210;6.504;2023-05-07T02:41:40;10.90;99.90
52058;DHT22;38063;53.210;6.504;2023-05-07T02:44:06;10.90;99.90
52058;DHT22;38063;53.210;6.504;2023-05-07T02:46:32;11.20;99.90
52058;DHT22;38063;53.210;6.504;2023-05-07T02:48:57;10.90;99.90
52058;DHT22;38063;53.210;6.504;2023-05-07T02:51:23;10.90;99.90
52058;DHT22;38063;53.210;6.504;2023-05-07T02:53:49;10.90;99.90
52058;DHT22;38063;53.210;6.504;2023-05-07T02:56:14;10.90;99.90
52058;DHT22;38063;53.210;6.504;2023-05-07T02:58:40;10.90;99.90
52058;DHT22;38063;53.210;6.504;2023-05-07T03:01:07;10.90;99.90
52058;DHT22;38063;53.210;6.504;2023-05-07T03:03:33;10.90;99.90
52058;DHT22;38063;53.210;6.504;2023-05-07T03:05:58;11.10;99.90
52058;DHT22;38063;53.210;6.504;2023-05-07T03:08:24;10.90;99.90
52058;DHT22;38063;53.210;6.504;2023-05-07T03:10:50;10.90;99.90
52058;DHT22;38063;53.210;6.504;2023-05-07T03:13:16;10.90;99.90
52058;DHT22;38063;53.210;6.504;2023-05-07T03:15:42;11.70;99.90
52058;DHT22;38063;53.210;6.504;2023-05-07T03:18:08;11.00;99.90
52058;DHT22;38063;53.210;6.504;2023-05-07T03:20:33;10.90;99.90
52058;DHT22;38063;53.210;6.504;2023-05-07T03:22:59;10.80;99.90
52058;DHT22;38063;53.210;6.504;2023-05-07T03:25:25;10.90;99.90
52058;DHT22;38063;53.210;6.504;2023-05-07T03:27:51;11.40;99.90
52058;DHT22;38063;53.210;6.504;2023-05-07T03:30:16;10.80;99.90
52058;DHT22;38063;53.210;6.504;2023-05-07T03:32:42;10.80;99.90
52058;DHT22;38063;53.210;6.504;2023-05-07T03:35:08;11.20;99.90
52058;DHT22;38063;53.210;6.504;2023-05-07T03:37:34;10.80;99.90
52058;DHT22;38063;53.210;6.504;2023-05-07T03:39:59;10.80;99.90
52058;DHT22;38063;53.210;6.504;2023-05-07T03:42:25;10.80;99.90
52058;DHT22;38063;53.210;6.504;2023-05-07T03:44:51;10.70;99.90
52058;DHT22;38063;53.210;6.504;2023-05-07T03:47:17;11.00;99.90
52058;DHT22;38063;53.210;6.504;2023-05-07T03:49:42;11.20;99.90
52058;DHT22;38063;53.210;6.504;2023-05-07T03:52:08;10.70;99.90
52058;DHT22;38063;53.210;6.504;2023-05-07T03:54:33;10.70;99.90
52058;DHT22;38063;53.210;6.504;2023-05-07T03:56:59;11.00;99.90
52058;DHT22;38063;53.210;6.504;2023-05-07T03:59:25;10.60;99.90
52058;DHT22;38063;53.210;6.504;2023-05-07T04:01:51;10.70;99.90
52058;DHT22;38063;53.210;6.504;2023-05-07T04:04:17;10.60;99.90
52058;DHT22;38063;53.210;6.504;2023-05-07T04:06:42;10.60;99.90
52058;DHT22;38063;53.210;6.504;2023-05-07T04:09:08;10.60;99.90
52058;DHT22;38063;53.210;6.504;2023-05-07T04:11:35;10.60;99.90
52058;DHT22;38063;53.210;6.504;2023-05-07T04:14:00;10.60;99.90
52058;DHT22;38063;53.210;6.504;2023-05-07T04:16:26;10.60;99.90
52058;DHT22;38063;53.210;6.504;2023-05-07T04:18:52;10.60;99.90
52058;DHT22;38063;53.210;6.504;2023-05-07T04:21:19;10.60;99.90
52058;DHT22;38063;53.210;6.504;2023-05-07T04:23:49;10.60;99.90
52058;DHT22;38063;53.210;6.504;2023-05-07T04:26:15;10.60;99.90
52058;DHT22;38063;53.210;6.504;2023-05-07T04:28:41;10.60;99.90
52058;DHT22;38063;53.210;6.504;2023-05-07T04:31:07;10.50;99.90
52058;DHT22;38063;53.210;6.504;2023-05-07T04:33:33;10.60;99.90
52058;DHT22;38063;53.210;6.504;2023-05-07T04:36:02;10.50;99.90
52058;DHT22;38063;53.210;6.504;2023-05-07T04:38:31;10.50;99.90
52058;DHT22;38063;53.210;6.504;2023-05-07T04:41:02;10.60;99.90
52058;DHT22;38063;53.210;6.504;2023-05-07T04:43:27;10.80;99.90
52058;DHT22;38063;53.210;6.504;2023-05-07T04:45:53;10.50;99.90
52058;DHT22;38063;53.210;6.504;2023-05-07T04:48:18;10.60;99.90
52058;DHT22;38063;53.210;6.504;2023-05-07T04:50:49;10.60;99.90
52058;DHT22;38063;53.210;6.504;2023-05-07T04:53:16;10.50;99.90
52058;DHT22;38063;53.210;6.504;2023-05-07T04:55:42;10.50;99.90
52058;DHT22;38063;53.210;6.504;2023-05-07T04:58:08;10.70;99.90
52058;DHT22;38063;53.210;6.504;2023-05-07T05:00:34;10.50;99.90
52058;DHT22;38063;53.210;6.504;2023-05-07T05:03:00;10.50;99.90
52058;DHT22;38063;53.210;6.504;2023-05-07T05:05:26;10.50;99.90
52058;DHT22;38063;53.210;6.504;2023-05-07T05:07:51;10.50;99.90
52058;DHT22;38063;53.210;6.504;2023-05-07T05:10:17;10.50;99.90
52058;DHT22;38063;53.210;6.504;2023-05-07T05:12:43;10.50;99.90
52058;DHT22;38063;53.210;6.504;2023-05-07T05:15:11;11.00;99.90
52058;DHT22;38063;53.210;6.504;2023-05-07T05:17:37;10.40;99.90
52058;DHT22;38063;53.210;6.504;2023-05-07T05:20:03;10.50;99.90
52058;DHT22;38063;53.210;6.504;2023-05-07T05:22:29;10.40;99.90
52058;DHT22;38063;53.210;6.504;2023-05-07T05:24:56;10.40;99.90
52058;DHT22;38063;53.210;6.504;2023-05-07T05:27:22;10.50;99.90
52058;DHT22;38063;53.210;6.504;2023-05-07T05:29:48;11.10;99.90
52058;DHT22;38063;53.210;6.504;2023-05-07T05:32:13;10.60;99.90
52058;DHT22;38063;53.210;6.504;2023-05-07T05:34:39;10.50;99.90
52058;DHT22;38063;53.210;6.504;2023-05-07T05:37:05;10.50;99.90
52058;DHT22;38063;53.210;6.504;2023-05-07T05:39:31;10.50;99.90
52058;DHT22;38063;53.210;6.504;2023-05-07T05:41:56;10.50;99.90
52058;DHT22;38063;53.210;6.504;2023-05-07T05:44:22;10.40;99.90
52058;DHT22;38063;53.210;6.504;2023-05-07T05:46:48;10.50;99.90
52058;DHT22;38063;53.210;6.504;2023-05-07T05:49:15;10.50;99.90
52058;DHT22;38063;53.210;6.504;2023-05-07T05:51:41;10.60;99.90
52058;DHT22;38063;53.210;6.504;2023-05-07T05:54:07;10.50;99.90
52058;DHT22;38063;53.210;6.504;2023-05-07T05:56:32;10.50;99.90
52058;DHT22;38063;53.210;6.504;2023-05-07T05:58:58;10.50;99.90
52058;DHT22;38063;53.210;6.504;2023-05-07T06:01:24;10.50;99.90
52058;DHT22;38063;53.210;6.504;2023-05-07T06:03:50;10.50;99.90
52058;DHT22;38063;53.210;6.504;2023-05-07T06:06:16;10.40;99.90
52058;DHT22;38063;53.210;6.504;2023-05-07T06:08:42;10.50;99.90
52058;DHT22;38063;53.210;6.504;2023-05-07T06:11:07;10.80;99.90
52058;DHT22;38063;53.210;6.504;2023-05-07T06:13:33;10.50;99.90
52058;DHT22;38063;53.210;6.504;2023-05-07T06:15:59;10.70;99.90
52058;DHT22;38063;53.210;6.504;2023-05-07T06:18:24;10.50;99.90
52058;DHT22;38063;53.210;6.504;2023-05-07T06:20:51;10.60;99.90
52058;DHT22;38063;53.210;6.504;2023-05-07T06:23:17;10.60;99.90
52058;DHT22;38063;53.210;6.504;2023-05-07T06:25:48;10.60;99.90
52058;DHT22;38063;53.210;6.504;2023-05-07T06:28:15;10.60;99.90
52058;DHT22;38063;53.210;6.504;2023-05-07T06:30:40;10.60;99.90
52058;DHT22;38063;53.210;6.504;2023-05-07T06:33:06;10.70;99.90
52058;DHT22;38063;53.210;6.504;2023-05-07T06:35:32;11.10;99.90
52058;DHT22;38063;53.210;6.504;2023-05-07T06:37:57;10.70;99.90
52058;DHT22;38063;53.210;6.504;2023-05-07T06:40:23;10.90;99.90
52058;DHT22;38063;53.210;6.504;2023-05-07T06:42:49;10.80;99.90
52058;DHT22;38063;53.210;6.504;2023-05-07T06:45:14;10.80;99.90
52058;DHT22;38063;53.210;6.504;2023-05-07T06:47:40;10.90;99.90
52058;DHT22;38063;53.210;6.504;2023-05-07T06:50:06;11.10;99.90
52058;DHT22;38063;53.210;6.504;2023-05-07T06:52:32;10.90;99.90
52058;DHT22;38063;53.210;6.504;2023-05-07T06:54:57;10.90;99.90
52058;DHT22;38063;53.210;6.504;2023-05-07T06:57:24;11.00;99.90
52058;DHT22;38063;53.210;6.504;2023-05-07T06:59:49;11.00;99.90
52058;DHT22;38063;53.210;6.504;2023-05-07T07:02:15;11.00;99.90
52058;DHT22;38063;53.210;6.504;2023-05-07T07:04:41;11.00;99.90
52058;DHT22;38063;53.210;6.504;2023-05-07T07:07:07;11.00;99.90
52058;DHT22;38063;53.210;6.504;2023-05-07T07:09:33;11.00;99.90
52058;DHT22;38063;53.210;6.504;2023-05-07T07:11:58;11.10;99.90
52058;DHT22;38063;53.210;6.504;2023-05-07T07:14:24;11.00;99.90
52058;DHT22;38063;53.210;6.504;2023-05-07T07:16:50;11.00;99.90
52058;DHT22;38063;53.210;6.504;2023-05-07T07:19:16;11.00;99.90
52058;DHT22;38063;53.210;6.504;2023-05-07T07:21:42;11.40;99.90
52058;DHT22;38063;53.210;6.504;2023-05-07T07:24:07;11.00;99.90
52058;DHT22;38063;53.210;6.504;2023-05-07T07:26:33;11.00;99.90
52058;DHT22;38063;53.210;6.504;2023-05-07T07:28:59;11.20;99.90
52058;DHT22;38063;53.210;6.504;2023-05-07T07:31:24;11.10;99.90
52058;DHT22;38063;53.210;6.504;2023-05-07T07:33:50;11.10;99.90
52058;DHT22;38063;53.210;6.504;2023-05-07T07:36:16;11.20;99.90
52058;DHT22;38063;53.210;6.504;2023-05-07T07:38:41;11.20;99.90
52058;DHT22;38063;53.210;6.504;2023-05-07T07:41:10;11.20;99.90
52058;DHT22;38063;53.210;6.504;2023-05-07T07:43:36;11.30;99.90
52058;DHT22;38063;53.210;6.504;2023-05-07T07:46:01;11.20;99.90
52058;DHT22;38063;53.210;6.504;2023-05-07T07:48:27;11.20;99.90
52058;DHT22;38063;53.210;6.504;2023-05-07T07:50:53;11.20;99.90
52058;DHT22;38063;53.210;6.504;2023-05-07T07:53:18;11.30;99.90
52058;DHT22;38063;53.210;6.504;2023-05-07T07:55:44;11.30;99.90
52058;DHT22;38063;53.210;6.504;2023-05-07T07:58:10;11.40;99.90
52058;DHT22;38063;53.210;6.504;2023-05-07T08:00:36;11.40;99.90
52058;DHT22;38063;53.210;6.504;2023-05-07T08:03:02;11.50;99.90
52058;DHT22;38063;53.210;6.504;2023-05-07T08:05:29;11.60;99.90
52058;DHT22;38063;53.210;6.504;2023-05-07T08:07:54;11.60;99.90
52058;DHT22;38063;53.210;6.504;2023-05-07T08:10:21;11.70;99.90
52058;DHT22;38063;53.210;6.504;2023-05-07T08:12:50;11.70;99.90
52058;DHT22;38063;53.210;6.504;2023-05-07T08:15:16;11.70;99.90
52058;DHT22;38063;53.210;6.504;2023-05-07T08:17:42;11.70;99.90
52058;DHT22;38063;53.210;6.504;2023-05-07T08:20:09;11.70;99.90
52058;DHT22;38063;53.210;6.504;2023-05-07T08:22:38;11.70;99.90
52058;DHT22;38063;53.210;6.504;2023-05-07T08:25:04;11.70;99.90
52058;DHT22;38063;53.210;6.504;2023-05-07T08:27:29;11.80;99.90
52058;DHT22;38063;53.210;6.504;2023-05-07T08:29:55;11.80;99.90
52058;DHT22;38063;53.210;6.504;2023-05-07T08:32:21;11.90;99.90
52058;DHT22;38063;53.210;6.504;2023-05-07T08:34:47;11.90;99.90
52058;DHT22;38063;53.210;6.504;2023-05-07T08:37:13;12.00;99.90
52058;DHT22;38063;53.210;6.504;2023-05-07T08:39:39;12.10;99.90
52058;DHT22;38063;53.210;6.504;2023-05-07T08:42:05;12.10;99.90
52058;DHT22;38063;53.210;6.504;2023-05-07T08:44:35;12.10;99.90
52058;DHT22;38063;53.210;6.504;2023-05-07T08:47:02;12.20;99.90
52058;DHT22;38063;53.210;6.504;2023-05-07T08:49:28;12.20;99.90
52058;DHT22;38063;53.210;6.504;2023-05-07T08:51:54;12.30;99.90
52058;DHT22;38063;53.210;6.504;2023-05-07T08:54:21;12.30;99.90
52058;DHT22;38063;53.210;6.504;2023-05-07T08:56:47;12.40;99.90
52058;DHT22;38063;53.210;6.504;2023-05-07T08:59:13;12.40;99.90
52058;DHT22;38063;53.210;6.504;2023-05-07T09:01:39;12.80;99.90
52058;DHT22;38063;53.210;6.504;2023-05-07T09:04:05;12.60;99.90
52058;DHT22;38063;53.210;6.504;2023-05-07T09:06:32;12.70;99.90
52058;DHT22;38063;53.210;6.504;2023-05-07T09:08:58;12.80;99.90
52058;DHT22;38063;53.210;6.504;2023-05-07T09:11:27;13.00;99.90
52058;DHT22;38063;53.210;6.504;2023-05-07T09:13:56;13.10;99.90
52058;DHT22;38063;53.210;6.504;2023-05-07T09:16:23;13.20;99.90
52058;DHT22;38063;53.210;6.504;2023-05-07T09:18:53;13.30;99.90
52058;DHT22;38063;53.210;6.504;2023-05-07T09:21:19;13.40;99.90
52058;DHT22;38063;53.210;6.504;2023-05-07T09:23:45;13.50;99.90
52058;DHT22;38063;53.210;6.504;2023-05-07T09:26:14;13.50;99.90
52058;DHT22;38063;53.210;6.504;2023-05-07T09:28:41;13.50;99.90
52058;DHT22;38063;53.210;6.504;2023-05-07T09:31:08;13.50;99.90
52058;DHT22;38063;53.210;6.504;2023-05-07T09:33:34;13.50;99.90
52058;DHT22;38063;53.210;6.504;2023-05-07T09:36:04;13.60;99.90
52058;DHT22;38063;53.210;6.504;2023-05-07T09:38:31;13.50;99.90
52058;DHT22;38063;53.210;6.504;2023-05-07T09:41:10;13.60;99.90
52058;DHT22;38063;53.210;6.504;2023-05-07T09:43:37;13.60;99.90
52058;DHT22;38063;53.210;6.504;2023-05-07T09:48:42;13.70;99.90
52058;DHT22;38063;53.210;6.504;2023-05-07T09:51:18;13.90;99.90
52058;DHT22;38063;53.210;6.504;2023-05-07T09:53:48;13.90;99.90
52058;DHT22;38063;53.210;6.504;2023-05-07T09:56:16;13.90;99.90
52058;DHT22;38063;53.210;6.504;2023-05-07T09:58:43;13.90;99.90
52058;DHT22;38063;53.210;6.504;2023-05-07T10:01:11;13.90;99.90
52058;DHT22;38063;53.210;6.504;2023-05-07T10:03:40;13.90;99.90
52058;DHT22;38063;53.210;6.504;2023-05-07T10:06:07;14.40;99.90
52058;DHT22;38063;53.210;6.504;2023-05-07T10:08:34;14.10;99.90
52058;DHT22;38063;53.210;6.504;2023-05-07T10:11:01;14.10;99.90
52058;DHT22;38063;53.210;6.504;2023-05-07T10:13:27;14.10;99.90
52058;DHT22;38063;53.210;6.504;2023-05-07T10:15:53;14.20;99.90
52058;DHT22;38063;53.210;6.504;2023-05-07T10:18:21;14.30;99.90
52058;DHT22;38063;53.210;6.504;2023-05-07T10:21:11;14.20;99.90
52058;DHT22;38063;53.210;6.504;2023-05-07T10:23:45;14.30;99.90
52058;DHT22;38063;53.210;6.504;2023-05-07T10:26:12;14.40;99.90
52058;DHT22;38063;53.210;6.504;2023-05-07T10:28:43;14.50;99.90
52058;DHT22;38063;53.210;6.504;2023-05-07T10:34:09;14.60;99.90
52058;DHT22;38063;53.210;6.504;2023-05-07T10:36:35;14.80;99.90
52058;DHT22;38063;53.210;6.504;2023-05-07T10:39:01;15.00;99.90
52058;DHT22;38063;53.210;6.504;2023-05-07T10:41:27;15.40;99.90
52058;DHT22;38063;53.210;6.504;2023-05-07T10:43:53;15.70;99.90
52058;DHT22;38063;53.210;6.504;2023-05-07T10:46:20;15.80;99.90
52058;DHT22;38063;53.210;6.504;2023-05-07T10:51:29;15.90;99.90
52058;DHT22;38063;53.210;6.504;2023-05-07T10:56:37;16.00;99.90
52058;DHT22;38063;53.210;6.504;2023-05-07T11:02:02;16.40;99.90
52058;DHT22;38063;53.210;6.504;2023-05-07T11:04:30;16.50;99.90
52058;DHT22;38063;53.210;6.504;2023-05-07T11:10:07;16.30;99.90
52058;DHT22;38063;53.210;6.504;2023-05-07T11:15:05;16.60;99.90
52058;DHT22;38063;53.210;6.504;2023-05-07T11:17:32;16.80;99.90
52058;DHT22;38063;53.210;6.504;2023-05-07T11:20:00;16.90;99.90
52058;DHT22;38063;53.210;6.504;2023-05-07T11:25:02;17.20;99.90
52058;DHT22;38063;53.210;6.504;2023-05-07T11:27:29;17.40;99.90
52058;DHT22;38063;53.210;6.504;2023-05-07T11:29:55;17.60;99.90
52058;DHT22;38063;53.210;6.504;2023-05-07T11:32:31;17.60;99.90
52058;DHT22;38063;53.210;6.504;2023-05-07T11:34:58;17.60;99.90
52058;DHT22;38063;53.210;6.504;2023-05-07T11:37:25;17.70;99.90
52058;DHT22;38063;53.210;6.504;2023-05-07T11:40:06;17.80;99.90
52058;DHT22;38063;53.210;6.504;2023-05-07T11:42:35;18.00;99.90
52058;DHT22;38063;53.210;6.504;2023-05-07T11:45:01;18.20;99.90
52058;DHT22;38063;53.210;6.504;2023-05-07T11:47:30;18.30;99.90
52058;DHT22;38063;53.210;6.504;2023-05-07T11:49:55;18.40;99.90
52058;DHT22;38063;53.210;6.504;2023-05-07T11:52:23;18.60;99.90
52058;DHT22;38063;53.210;6.504;2023-05-07T11:54:56;18.60;99.90
52058;DHT22;38063;53.210;6.504;2023-05-07T11:57:23;18.40;99.90
52058;DHT22;38063;53.210;6.504;2023-05-07T12:00:08;18.60;99.90
52058;DHT22;38063;53.210;6.504;2023-05-07T12:02:34;18.90;99.90
52058;DHT22;38063;53.210;6.504;2023-05-07T12:05:01;19.10;99.90
52058;DHT22;38063;53.210;6.504;2023-05-07T12:07:27;19.20;99.90
52058;DHT22;38063;53.210;6.504;2023-05-07T12:09:53;19.40;99.90
52058;DHT22;38063;53.210;6.504;2023-05-07T12:12:19;19.60;99.90
52058;DHT22;38063;53.210;6.504;2023-05-07T12:14:46;19.80;99.90
52058;DHT22;38063;53.210;6.504;2023-05-07T12:17:13;19.90;99.90
52058;DHT22;38063;53.210;6.504;2023-05-07T12:19:42;19.90;99.90
52058;DHT22;38063;53.210;6.504;2023-05-07T12:22:08;19.60;99.90
52058;DHT22;38063;53.210;6.504;2023-05-07T12:24:48;19.50;99.90
52058;DHT22;38063;53.210;6.504;2023-05-07T12:27:14;19.20;99.90
52058;DHT22;38063;53.210;6.504;2023-05-07T12:29:47;19.10;99.90
52058;DHT22;38063;53.210;6.504;2023-05-07T12:32:14;19.20;99.90
52058;DHT22;38063;53.210;6.504;2023-05-07T12:34:41;19.30;99.90
52058;DHT22;38063;53.210;6.504;2023-05-07T12:37:07;19.40;99.90
52058;DHT22;38063;53.210;6.504;2023-05-07T12:39:32;19.50;99.90
52058;DHT22;38063;53.210;6.504;2023-05-07T12:41:59;19.50;99.90
52058;DHT22;38063;53.210;6.504;2023-05-07T12:44:29;19.50;99.90
52058;DHT22;38063;53.210;6.504;2023-05-07T12:46:55;19.60;99.90
52058;DHT22;38063;53.210;6.504;2023-05-07T12:49:21;19.70;99.90
52058;DHT22;38063;53.210;6.504;2023-05-07T12:51:48;20.00;99.90
52058;DHT22;38063;53.210;6.504;2023-05-07T12:54:28;20.30;99.90
52058;DHT22;38063;53.210;6.504;2023-05-07T12:57:07;20.50;99.90
52058;DHT22;38063;53.210;6.504;2023-05-07T12:59:38;20.60;99.90
52058;DHT22;38063;53.210;6.504;2023-05-07T13:02:04;20.50;99.90
52058;DHT22;38063;53.210;6.504;2023-05-07T13:04:30;20.50;99.90
52058;DHT22;38063;53.210;6.504;2023-05-07T13:06:56;20.60;99.90
52058;DHT22;38063;53.210;6.504;2023-05-07T13:09:21;20.60;99.90
52058;DHT22;38063;53.210;6.504;2023-05-07T13:11:47;20.70;99.90
52058;DHT22;38063;53.210;6.504;2023-05-07T13:14:12;20.50;99.90
52058;DHT22;38063;53.210;6.504;2023-05-07T13:16:38;20.50;99.90
52058;DHT22;38063;53.210;6.504;2023-05-07T13:19:04;20.60;99.90
52058;DHT22;38063;53.210;6.504;2023-05-07T13:21:30;20.70;99.90
52058;DHT22;38063;53.210;6.504;2023-05-07T13:23:58;20.80;99.90
52058;DHT22;38063;53.210;6.504;2023-05-07T13:26:25;21.00;99.90
52058;DHT22;38063;53.210;6.504;2023-05-07T13:28:51;20.70;99.90
52058;DHT22;38063;53.210;6.504;2023-05-07T13:31:17;20.40;99.90
52058;DHT22;38063;53.210;6.504;2023-05-07T13:33:43;20.50;99.90
52058;DHT22;38063;53.210;6.504;2023-05-07T13:36:09;20.70;99.90
52058;DHT22;38063;53.210;6.504;2023-05-07T13:38:34;20.80;99.90
52058;DHT22;38063;53.210;6.504;2023-05-07T13:41:00;20.80;99.90
52058;DHT22;38063;53.210;6.504;2023-05-07T13:43:26;20.90;99.90
52058;DHT22;38063;53.210;6.504;2023-05-07T13:45:52;20.70;99.90
52058;DHT22;38063;53.210;6.504;2023-05-07T13:48:17;20.70;99.90
52058;DHT22;38063;53.210;6.504;2023-05-07T13:50:43;20.60;99.90
52058;DHT22;38063;53.210;6.504;2023-05-07T13:53:09;20.70;99.90
52058;DHT22;38063;53.210;6.504;2023-05-07T13:55:34;20.80;99.90
52058;DHT22;38063;53.210;6.504;2023-05-07T13:58:01;20.90;99.90
52058;DHT22;38063;53.210;6.504;2023-05-07T14:00:28;21.00;99.90
52058;DHT22;38063;53.210;6.504;2023-05-07T14:02:55;21.00;99.90
52058;DHT22;38063;53.210;6.504;2023-05-07T14:05:21;21.10;99.90
52058;DHT22;38063;53.210;6.504;2023-05-07T14:07:51;21.10;99.90
52058;DHT22;38063;53.210;6.504;2023-05-07T14:10:18;21.00;99.90
52058;DHT22;38063;53.210;6.504;2023-05-07T14:12:44;20.90;99.90
52058;DHT22;38063;53.210;6.504;2023-05-07T14:15:10;20.80;99.90
52058;DHT22;38063;53.210;6.504;2023-05-07T14:17:36;20.60;99.90
52058;DHT22;38063;53.210;6.504;2023-05-07T14:20:02;20.40;99.90
52058;DHT22;38063;53.210;6.504;2023-05-07T14:22:28;20.30;99.90
52058;DHT22;38063;53.210;6.504;2023-05-07T14:24:54;20.30;99.90
52058;DHT22;38063;53.210;6.504;2023-05-07T14:27:20;20.30;99.90
52058;DHT22;38063;53.210;6.504;2023-05-07T14:29:45;20.40;99.90
52058;DHT22;38063;53.210;6.504;2023-05-07T14:32:17;20.50;99.90
52058;DHT22;38063;53.210;6.504;2023-05-07T14:34:43;20.50;99.90
52058;DHT22;38063;53.210;6.504;2023-05-07T14:37:09;20.60;99.90
52058;DHT22;38063;53.210;6.504;2023-05-07T14:39:35;20.50;99.90
52058;DHT22;38063;53.210;6.504;2023-05-07T14:42:01;20.50;99.90
52058;DHT22;38063;53.210;6.504;2023-05-07T14:44:27;20.40;99.90
52058;DHT22;38063;53.210;6.504;2023-05-07T14:46:52;20.30;99.90
52058;DHT22;38063;53.210;6.504;2023-05-07T14:49:18;20.10;99.90
52058;DHT22;38063;53.210;6.504;2023-05-07T14:51:44;20.00;99.90
52058;DHT22;38063;53.210;6.504;2023-05-07T14:54:11;20.00;99.90
52058;DHT22;38063;53.210;6.504;2023-05-07T14:56:37;20.00;99.90
52058;DHT22;38063;53.210;6.504;2023-05-07T14:59:03;19.90;99.90
52058;DHT22;38063;53.210;6.504;2023-05-07T15:01:29;20.00;99.90
52058;DHT22;38063;53.210;6.504;2023-05-07T15:03:54;19.90;99.90
52058;DHT22;38063;53.210;6.504;2023-05-07T15:06:21;20.00;99.90
52058;DHT22;38063;53.210;6.504;2023-05-07T15:08:46;19.90;99.90
52058;DHT22;38063;53.210;6.504;2023-05-07T15:11:12;19.90;99.90
52058;DHT22;38063;53.210;6.504;2023-05-07T15:13:38;20.00;99.90
52058;DHT22;38063;53.210;6.504;2023-05-07T15:16:03;20.10;99.90
52058;DHT22;38063;53.210;6.504;2023-05-07T15:18:29;20.20;99.90
52058;DHT22;38063;53.210;6.504;2023-05-07T15:20:55;20.40;99.90
52058;DHT22;38063;53.210;6.504;2023-05-07T15:23:21;20.50;99.90
52058;DHT22;38063;53.210;6.504;2023-05-07T15:25:47;20.60;99.90
52058;DHT22;38063;53.210;6.504;2023-05-07T15:28:12;20.70;99.90
52058;DHT22;38063;53.210;6.504;2023-05-07T15:30:38;20.80;99.90
52058;DHT22;38063;53.210;6.504;2023-05-07T15:33:04;20.90;99.90
52058;DHT22;38063;53.210;6.504;2023-05-07T15:35:29;20.90;99.90
52058;DHT22;38063;53.210;6.504;2023-05-07T15:37:55;20.80;99.90
52058;DHT22;38063;53.210;6.504;2023-05-07T15:40:21;20.80;99.90
52058;DHT22;38063;53.210;6.504;2023-05-07T15:42:48;20.80;99.90
52058;DHT22;38063;53.210;6.504;2023-05-07T15:45:14;20.80;99.90
52058;DHT22;38063;53.210;6.504;2023-05-07T15:47:39;20.80;99.90